Time;durP1;ratioP1;P1;durP2;ratioP2;P2;SDS_P1;SDS_P2;PMS_P1;PMS_P2;Temp;Humidity;BMP_temperature;BMP_pressure;BME280_temperature;BME280_humidity;BME280_pressure;Samples;Min_cycle;Max_cycle;Signal;HPM_P1;HPM_P2
2022/04/16 00:00:56;;;;;;;7.93;3.73;;;;;;;17.14;39.93;94587.59;5052076;28;20183;-79
2022/04/16 00:03:23;;;;;;;5.93;3.70;;;;;;;17.11;40.07;94595.72;5051362;28;20199;-84
2022/04/16 00:06:01;;;;;;;7.00;3.83;;;;;;;17.09;40.18;94600.25;5051724;28;20202;-77
2022/04/16 00:08:30;;;;;;;5.43;4.00;;;;;;;17.03;40.18;94581.09;5050797;28;20222;-81
2022/04/16 00:10:59;;;;;;;3.90;3.43;;;;;;;17.05;40.14;94588.66;5051780;28;20195;-83
2022/04/16 00:13:26;;;;;;;9.73;3.93;;;;;;;17.03;40.51;94586.25;5050979;28;20637;-82
2022/04/16 00:15:53;;;;;;;9.47;3.90;;;;;;;17.00;40.52;94580.66;5051392;28;20187;-82
2022/04/16 00:18:21;;;;;;;6.67;3.90;;;;;;;16.96;40.49;94577.63;5052004;28;20261;-78
2022/04/16 00:20:50;;;;;;;4.13;3.23;;;;;;;16.95;40.55;94577.81;5051534;28;20198;-80
2022/04/16 00:23:19;;;;;;;4.50;3.87;;;;;;;16.88;40.50;94569.16;5051233;28;20642;-76
2022/04/16 00:25:46;;;;;;;4.93;3.47;;;;;;;16.93;40.62;94592.69;5051069;28;20199;-78
2022/04/16 00:28:14;;;;;;;6.50;3.80;;;;;;;16.89;40.57;94584.50;5050793;28;20202;-82
2022/04/16 00:30:41;;;;;;;6.90;3.93;;;;;;;16.60;40.79;94540.56;5050907;28;20211;-81
2022/04/16 00:33:10;;;;;;;7.23;3.60;;;;;;;16.83;40.74;94577.44;5050309;28;20202;-82
2022/04/16 00:35:38;;;;;;;4.83;3.67;;;;;;;16.82;40.70;94573.28;5050478;28;20684;-78
2022/04/16 00:38:05;;;;;;;5.13;4.10;;;;;;;16.80;40.81;94575.25;5050950;28;20195;-78
2022/04/16 00:40:32;;;;;;;5.23;3.90;;;;;;;16.79;40.96;94583.94;5050508;28;20550;-80
2022/04/16 00:43:00;;;;;;;8.97;3.97;;;;;;;16.77;40.82;94581.56;5050559;28;20195;-77
2022/04/16 00:45:28;;;;;;;4.63;3.30;;;;;;;16.75;40.93;94578.38;5050246;28;20684;-79
2022/04/16 00:47:55;;;;;;;4.77;3.27;;;;;;;16.71;40.71;94574.50;5050426;28;20195;-76
2022/04/16 00:50:22;;;;;;;4.87;3.60;;;;;;;16.65;41.10;94562.28;5049361;28;20222;-77
2022/04/16 00:52:49;;;;;;;5.60;3.90;;;;;;;16.70;40.76;94567.72;5050062;28;20191;-79
2022/04/16 00:55:16;;;;;;;5.77;3.53;;;;;;;16.68;40.80;94571.47;5049873;28;20617;-77
2022/04/16 00:57:43;;;;;;;5.70;3.80;;;;;;;16.66;41.02;94578.56;5050109;28;20202;-79
2022/04/16 01:00:14;;;;;;;7.73;3.73;;;;;;;16.64;41.30;94573.59;5049851;28;20240;-77
2022/04/16 01:02:42;;;;;;;4.97;3.70;;;;;;;16.63;40.99;94568.63;5032396;28;20182;-78
2022/04/16 01:05:12;;;;;;;7.60;4.10;;;;;;;16.51;41.21;94550.97;5049892;28;20281;-77
2022/04/16 01:07:53;;;;;;;4.67;3.63;;;;;;;16.59;41.39;94563.00;5050150;28;20223;-77
2022/04/16 01:10:20;;;;;;;5.60;4.00;;;;;;;16.58;41.34;94560.59;5049142;28;20230;-77
2022/04/16 01:12:47;;;;;;;5.80;3.73;;;;;;;16.56;41.44;94565.94;5050119;28;20183;-77
2022/04/16 01:15:14;;;;;;;5.63;4.40;;;;;;;16.47;41.76;94567.78;5050158;28;20193;-77
2022/04/16 01:17:43;;;;;;;7.40;3.80;;;;;;;16.53;41.41;94579.19;5050526;28;20195;-78
2022/04/16 01:20:10;;;;;;;3.57;3.20;;;;;;;16.50;41.39;94567.47;5050088;28;20682;-78
2022/04/16 01:22:39;;;;;;;6.90;4.60;;;;;;;16.47;41.56;94560.06;5049860;28;20194;-79
2022/04/16 01:25:07;;;;;;;6.53;4.40;;;;;;;16.40;41.44;94548.81;5049453;28;20198;-78
2022/04/16 01:27:35;;;;;;;6.50;3.77;;;;;;;16.45;41.59;94569.78;5049925;28;20690;-77
2022/04/16 01:30:02;;;;;;;4.93;4.03;;;;;;;16.43;41.48;94576.88;5050003;28;20276;-79
2022/04/16 01:32:29;;;;;;;5.20;4.07;;;;;;;16.42;41.46;94580.44;5049493;28;20272;-79
2022/04/16 01:34:56;;;;;;;5.33;3.67;;;;;;;16.40;41.61;94579.00;5049968;28;20190;-78
2022/04/16 01:37:23;;;;;;;4.20;3.53;;;;;;;16.37;41.74;94582.75;5049391;28;20191;-77
2022/04/16 01:39:51;;;;;;;5.37;3.47;;;;;;;16.35;41.61;94581.31;5050191;28;20282;-78
2022/04/16 01:42:18;;;;;;;4.87;3.57;;;;;;;16.33;41.73;94578.13;5049070;28;20190;-77
2022/04/16 01:44:45;;;;;;;5.00;4.07;;;;;;;16.26;41.83;94568.47;5050697;28;20183;-78
2022/04/16 01:47:12;;;;;;;8.23;3.80;;;;;;;16.29;41.93;94578.47;5053207;28;20601;-79
2022/04/16 01:49:39;;;;;;;6.37;4.20;;;;;;;16.27;42.07;94585.56;5053660;28;20230;-76
2022/04/16 01:52:06;;;;;;;6.17;4.47;;;;;;;16.22;42.08;94569.81;5053541;28;20214;-77
2022/04/16 01:54:35;;;;;;;5.73;4.23;;;;;;;16.20;41.99;94579.50;5053927;28;20183;-76
2022/04/16 01:57:03;;;;;;;5.07;4.37;;;;;;;16.19;42.17;94562.44;5053708;28;20677;-78
2022/04/16 01:59:30;;;;;;;5.17;4.33;;;;;;;15.98;42.19;94544.25;5053664;28;20199;-77
2022/04/16 02:01:58;;;;;;;7.00;4.40;;;;;;;16.15;42.24;94571.50;5053055;28;20187;-78
2022/04/16 02:04:26;;;;;;;9.33;4.23;;;;;;;16.13;42.39;94572.63;5053084;28;20616;-77
2022/04/16 02:06:53;;;;;;;7.80;4.53;;;;;;;16.08;42.50;94562.03;5053167;28;20269;-79
2022/04/16 02:09:20;;;;;;;7.10;4.27;;;;;;;16.09;42.51;94566.22;5053067;28;20250;-78
2022/04/16 02:11:46;;;;;;;5.20;4.20;;;;;;;16.07;42.57;94563.03;5053077;28;20199;-76
2022/04/16 02:14:16;;;;;;;8.57;4.13;;;;;;;15.93;42.49;94549.09;5053119;28;20195;-80
2022/04/16 02:16:43;;;;;;;6.83;4.47;;;;;;;16.02;42.55;94568.72;5053408;28;20282;-80
2022/04/16 02:19:10;;;;;;;4.80;4.30;;;;;;;15.99;42.67;94566.47;5035161;28;20191;-79
2022/04/16 02:21:52;;;;;;;8.43;5.03;;;;;;;15.93;42.80;94562.81;5053308;28;20666;-78
2022/04/16 02:24:19;;;;;;;6.27;3.83;;;;;;;15.96;42.65;94566.81;5050773;28;20191;-80
2022/04/16 02:26:46;;;;;;;6.53;4.50;;;;;;;15.94;42.75;94569.56;5052825;28;20201;-81
2022/04/16 02:29:13;;;;;;;7.53;4.67;;;;;;;15.90;42.98;94564.94;5053383;28;20198;-78
2022/04/16 02:31:44;;;;;;;6.43;3.97;;;;;;;15.89;42.96;94561.56;5052839;28;20540;-78
2022/04/16 02:34:16;;;;;;;9.67;3.80;;;;;;;15.88;42.85;94566.88;5052832;28;20190;-78
2022/04/16 02:36:43;;;;;;;6.37;4.20;;;;;;;15.83;43.01;94561.44;5053217;28;20241;-80
2022/04/16 02:39:14;;;;;;;9.57;4.93;;;;;;;15.81;43.04;94561.63;5052124;28;20274;-77
2022/04/16 02:41:41;;;;;;;4.43;3.73;;;;;;;15.79;43.35;94559.19;5052745;28;20282;-79
2022/04/16 02:47:05;;;;;;;7.67;4.43;;;;;;;15.78;43.17;94564.53;5052619;28;20191;-78
2022/04/16 02:47:08;;;;;;;9.60;4.13;;;;;;;15.69;43.17;94550.91;5032839;28;20198;-78
2022/04/16 02:49:37;;;;;;;9.13;4.20;;;;;;;15.61;43.38;94543.19;5032628;28;20223;-81
2022/04/16 02:52:05;;;;;;;6.07;4.27;;;;;;;15.69;43.45;94560.41;5032605;28;20187;-78
2022/04/16 02:54:32;;;;;;;9.93;4.40;;;;;;;15.67;43.33;94559.75;5032521;28;20192;-81
2022/04/16 02:56:59;;;;;;;6.83;3.90;;;;;;;15.65;43.47;94562.53;5050100;28;20199;-78
2022/04/16 02:59:27;;;;;;;8.80;4.03;;;;;;;15.59;43.38;94558.03;5052294;28;20187;-78
2022/04/16 03:01:54;;;;;;;4.27;3.87;;;;;;;15.62;43.40;94568.00;5052223;28;20256;-80
2022/04/16 03:04:22;;;;;;;10.17;4.30;;;;;;;15.59;43.17;94564.94;5052264;28;20681;-77
2022/04/16 03:06:50;;;;;;;6.33;4.00;;;;;;;15.59;43.27;94575.25;5051815;28;20710;-81
2022/04/16 03:09:17;;;;;;;7.33;4.13;;;;;;;15.55;43.54;94570.47;5051591;28;20223;-79
2022/04/16 03:11:44;;;;;;;8.77;4.87;;;;;;;15.56;43.37;94571.25;5052488;28;20199;-81
2022/04/16 03:19:41;;;;;;;8.77;3.87;;;;;;;15.44;43.88;94565.69;5052228;28;20213;-78
2022/04/16 03:22:08;;;;;;;5.47;3.53;;;;;;;15.46;43.84;94573.28;5051711;28;20198;-82
2022/04/16 03:24:34;;;;;;;4.93;4.13;;;;;;;15.45;43.88;94574.22;5051840;28;20187;-77
2022/04/16 03:27:01;;;;;;;9.90;4.40;;;;;;;15.41;43.94;94572.94;5051537;28;20609;-79
2022/04/16 03:29:28;;;;;;;7.30;3.93;;;;;;;15.41;43.98;94571.19;5051562;28;20191;-81
2022/04/16 03:31:55;;;;;;;11.27;4.67;;;;;;;15.36;44.13;94570.88;5051914;28;20692;-78
2022/04/16 03:34:22;;;;;;;7.43;4.57;;;;;;;15.38;44.19;94581.84;5051638;28;20195;-81
2022/04/16 03:36:50;;;;;;;5.03;3.70;;;;;;;15.36;44.16;94586.34;5051869;28;20195;-79
2022/04/16 03:39:20;;;;;;;10.60;4.23;;;;;;;15.36;44.11;94591.50;5051419;28;20195;-79
2022/04/16 03:41:48;;;;;;;7.07;4.17;;;;;;;15.34;44.04;94597.81;5051412;28;20663;-78
2022/04/16 03:44:15;;;;;;;8.23;4.23;;;;;;;15.26;44.24;94590.91;5051414;28;20571;-77
2022/04/16 03:46:42;;;;;;;9.30;4.10;;;;;;;15.27;44.37;94595.09;5051538;28;20207;-77
2022/04/16 03:49:09;;;;;;;9.47;4.00;;;;;;;15.30;44.37;94610.22;5051132;28;20199;-77
2022/04/16 03:51:36;;;;;;;8.77;4.43;;;;;;;15.30;44.32;94610.22;5051216;28;20678;-77
2022/04/16 04:02:13;;;;;;;10.97;4.83;;;;;;;15.30;45.00;94628.25;5051002;28;20194;-79
2022/04/16 04:04:43;;;;;;;8.07;4.50;;;;;;;15.32;44.91;94626.31;5051309;28;20191;-77
2022/04/16 04:07:10;;;;;;;8.57;4.40;;;;;;;15.36;44.96;94637.09;5051221;28;20289;-78
2022/04/16 04:09:39;;;;;;;10.67;4.70;;;;;;;15.37;45.02;94636.94;5050102;28;20229;-79
2022/04/16 04:12:10;;;;;;;6.57;4.17;;;;;;;15.36;44.94;94625.00;5050789;28;20205;-79
2022/04/16 04:14:39;;;;;;;9.87;4.47;;;;;;;15.45;44.80;94631.72;5050622;28;20227;-79
2022/04/16 04:17:07;;;;;;;9.17;4.27;;;;;;;15.48;45.03;94646.84;5050948;28;20256;-78
2022/04/16 04:19:35;;;;;;;6.93;4.20;;;;;;;15.51;45.19;94635.41;5050829;28;20268;-76
2022/04/16 04:22:02;;;;;;;7.17;4.30;;;;;;;15.59;44.98;94639.69;5050457;28;20187;-78
2022/04/16 04:24:29;;;;;;;6.50;4.80;;;;;;;15.58;45.13;94628.59;5050888;28;20187;-78
2022/04/16 04:26:57;;;;;;;12.83;5.20;;;;;;;15.68;45.02;94633.59;5051137;28;20202;-77
2022/04/16 04:29:24;;;;;;;10.50;4.67;;;;;;;15.73;44.72;94626.13;5050572;28;20225;-78
2022/04/16 04:31:51;;;;;;;14.17;4.97;;;;;;;15.86;44.31;94613.47;5051944;28;20211;-80
2022/04/16 04:34:18;;;;;;;8.63;4.20;;;;;;;16.14;43.61;94621.47;5051069;28;20198;-82
2022/04/16 04:36:45;;;;;;;9.30;4.80;;;;;;;16.35;43.73;94627.75;5051387;28;20183;-77
2022/04/16 04:39:13;;;;;;;10.60;4.43;;;;;;;16.52;44.10;94614.53;5050935;28;20191;-81
2022/04/16 04:41:43;;;;;;;6.90;4.00;;;;;;;16.90;44.37;94631.78;5051647;28;20210;-79
2022/04/16 04:44:13;;;;;;;7.83;5.03;;;;;;;17.14;44.23;94635.88;5056961;28;20573;-77
2022/04/16 04:46:40;;;;;;;10.43;5.07;;;;;;;17.39;43.95;94629.44;5055482;28;20547;-79
2022/04/16 04:49:08;;;;;;;8.73;4.73;;;;;;;17.79;43.57;94648.81;5055080;28;20661;-75
2022/04/16 04:51:39;;;;;;;8.20;4.83;;;;;;;18.07;43.23;94644.72;5050835;28;20245;-75
2022/04/16 04:54:06;;;;;;;10.97;5.10;;;;;;;18.45;42.81;94650.44;5050226;28;20187;-76
2022/04/16 04:56:33;;;;;;;8.73;4.97;;;;;;;18.74;42.33;94645.09;5049849;28;20194;-79
2022/04/16 04:59:04;;;;;;;7.17;4.60;;;;;;;19.05;42.12;94651.66;5049776;28;20261;-78
2022/04/16 05:01:32;;;;;;;9.63;4.93;;;;;;;19.34;41.56;94655.78;5050023;28;20573;-77
2022/04/16 05:03:59;;;;;;;10.47;4.83;;;;;;;19.48;41.09;94635.94;5049840;28;20187;-77
2022/04/16 05:06:25;;;;;;;9.03;5.40;;;;;;;19.74;40.82;94648.22;5050515;28;20654;-78
2022/04/16 05:08:52;;;;;;;6.83;5.07;;;;;;;19.95;40.36;94652.47;5050096;28;20234;-80
2022/04/16 05:11:24;;;;;;;9.77;4.73;;;;;;;20.12;40.18;94655.47;5049925;28;20234;-80
2022/04/16 05:13:51;;;;;;;9.20;5.40;;;;;;;20.29;40.13;94643.72;5050194;28;20230;-78
2022/04/16 05:16:18;;;;;;;7.97;4.37;;;;;;;20.51;39.68;94650.38;5050180;28;20187;-75
2022/04/16 05:18:46;;;;;;;7.97;4.83;;;;;;;20.63;39.22;94623.75;5050001;28;20233;-76
2022/04/16 05:21:13;;;;;;;10.63;5.40;;;;;;;21.05;38.75;94649.28;5048439;28;20206;-75
2022/04/16 05:23:40;;;;;;;9.33;4.67;;;;;;;21.39;38.52;94642.25;5050199;28;20195;-75
2022/04/16 05:26:09;;;;;;;10.87;5.10;;;;;;;21.79;38.40;94648.06;5049906;28;20183;-75
2022/04/16 05:28:36;;;;;;;12.17;5.07;;;;;;;22.21;37.76;94640.66;5048741;28;20317;-79
2022/04/16 05:31:04;;;;;;;8.00;5.30;;;;;;;22.66;37.27;94639.69;5049526;28;20221;-81
2022/04/16 05:36:17;;;;;;;7.32;3.88;;;;;;;23.63;38.11;94632.13;5049401;28;20186;-77
2022/04/16 05:38:44;;;;;;;19.20;4.25;;;;;;;24.02;40.96;94630.81;5050183;28;20581;-87
2022/04/16 05:41:11;;;;;;;6.45;3.47;;;;;;;24.46;41.48;94637.44;5049200;28;20218;-77
2022/04/16 05:43:38;;;;;;;5.25;3.50;;;;;;;24.79;41.25;94641.34;5049244;28;20184;-79
2022/04/16 05:46:05;;;;;;;5.57;3.58;;;;;;;25.10;41.32;94644.66;5049629;28;20195;-79
2022/04/16 05:48:32;;;;;;;6.85;3.78;;;;;;;25.38;41.52;94652.56;5050142;28;20638;-87
2022/04/16 05:50:59;;;;;;;5.78;3.45;;;;;;;25.65;40.94;94646.84;5049460;28;20234;-86
2022/04/16 05:53:30;;;;;;;3.92;3.42;;;;;;;25.71;40.58;94622.31;5049000;28;20195;-80
2022/04/16 05:56:00;;;;;;;6.22;3.67;;;;;;;26.04;40.64;94626.91;5050800;28;20257;-83
2022/04/16 05:58:27;;;;;;;6.88;4.13;;;;;;;26.31;40.06;94640.19;5050715;28;20293;-87
2022/04/16 06:00:54;;;;;;;8.55;4.63;;;;;;;26.53;39.46;94640.31;5049684;28;20195;-82
2022/04/16 06:03:22;;;;;;;7.45;4.18;;;;;;;26.76;39.63;94641.97;5049629;28;20213;-79
2022/04/16 06:05:50;;;;;;;13.90;4.45;;;;;;;26.95;37.98;94629.41;5047135;28;20574;-80
2022/04/16 06:08:17;;;;;;;7.75;5.22;;;;;;;27.11;36.61;94630.44;5048428;28;20223;-79
2022/04/16 06:10:46;;;;;;;9.40;5.57;;;;;;;27.33;35.69;94641.78;5049434;28;20214;-77
2022/04/16 06:13:15;;;;;;;8.00;4.93;;;;;;;27.47;34.23;94644.84;5049058;28;20195;-82
2022/04/16 06:15:42;;;;;;;6.15;4.97;;;;;;;27.55;35.47;94627.81;5048729;28;20187;-78
2022/04/16 06:18:09;;;;;;;9.30;4.78;;;;;;;27.78;34.29;94643.38;5049158;28;20186;-79
2022/04/16 06:20:36;;;;;;;9.85;5.88;;;;;;;27.84;34.66;94641.59;5048397;28;20198;-82
2022/04/16 06:23:03;;;;;;;10.00;6.25;;;;;;;27.90;33.41;94632.72;5049728;28;20187;-79
2022/04/16 06:25:30;;;;;;;8.95;5.05;;;;;;;27.97;33.11;94631.47;5048976;28;20195;-82
2022/04/16 06:27:59;;;;;;;10.45;5.72;;;;;;;28.00;33.08;94619.69;5048954;28;20659;-77
2022/04/16 06:30:27;;;;;;;8.70;4.90;;;;;;;28.29;33.48;94653.63;5048826;28;20260;-77
2022/04/16 06:32:56;;;;;;;8.98;4.80;;;;;;;28.28;33.45;94629.13;5052976;28;20733;-78
2022/04/16 06:35:26;;;;;;;8.75;4.47;;;;;;;28.48;33.17;94642.50;5052162;28;20195;-78
2022/04/16 06:37:53;;;;;;;8.00;4.40;;;;;;;28.57;32.56;94642.84;5036874;28;20198;-77
2022/04/16 06:40:20;;;;;;;7.03;4.28;;;;;;;28.66;33.58;94640.53;5052928;28;20194;-75
2022/04/16 06:42:47;;;;;;;8.15;4.97;;;;;;;28.75;33.48;94634.53;5053324;28;20190;-75
2022/04/16 06:45:15;;;;;;;7.50;4.80;;;;;;;28.84;33.71;94634.88;5052013;28;20195;-80
2022/04/16 06:48:00;;;;;;;6.65;4.63;;;;;;;28.92;33.06;94625.72;5052293;28;20197;-76
2022/04/16 06:50:27;;;;;;;7.15;4.30;;;;;;;29.09;32.46;94638.75;5052489;28;20183;-75
2022/04/16 06:52:55;;;;;;;7.97;4.47;;;;;;;29.17;31.93;94633.78;5052932;28;20573;-77
2022/04/16 06:55:22;;;;;;;7.70;3.67;;;;;;;29.28;31.88;94636.50;5052224;28;20285;-75
2022/04/16 06:57:48;;;;;;;4.88;3.72;;;;;;;29.38;31.40;94636.53;5052361;28;20194;-75
2022/04/16 07:00:19;;;;;;;6.97;3.45;;;;;;;29.46;31.38;94630.78;5052108;28;20179;-78
2022/04/16 07:02:46;;;;;;;4.70;3.70;;;;;;;29.57;31.34;94632.41;5052246;28;20206;-79
2022/04/16 07:05:15;;;;;;;6.88;4.00;;;;;;;29.65;31.25;94639.06;5051502;28;20241;-76
2022/04/16 07:07:42;;;;;;;6.60;3.65;;;;;;;29.71;31.85;94641.47;5051595;28;20211;-79
2022/04/16 07:10:13;;;;;;;6.38;3.97;;;;;;;29.82;31.13;94647.53;5052340;28;20579;-74
2022/04/16 07:12:42;;;;;;;4.53;3.67;;;;;;;29.90;31.83;94643.63;5044157;28;20223;-76
2022/04/16 07:15:13;;;;;;;4.80;4.10;;;;;;;30.00;32.32;94641.78;5051852;28;20187;-78
2022/04/16 07:17:41;;;;;;;9.27;3.85;;;;;;;30.09;31.31;94638.63;5051789;28;20203;-77
2022/04/16 07:20:09;;;;;;;6.72;4.03;;;;;;;30.16;31.59;94634.72;5052942;28;20682;-76
2022/04/16 07:22:37;;;;;;;8.18;4.15;;;;;;;30.24;31.58;94634.22;5052084;28;20213;-75
2022/04/16 07:25:05;;;;;;;11.00;4.45;;;;;;;30.19;29.63;94633.44;5052262;28;20206;-75
2022/04/16 07:27:32;;;;;;;4.90;4.05;;;;;;;30.08;29.20;94637.06;5052379;28;20191;-77
2022/04/16 07:29:59;;;;;;;5.43;3.85;;;;;;;30.02;30.13;94631.00;5052342;28;20219;-75
2022/04/16 07:32:26;;;;;;;5.00;3.78;;;;;;;30.00;30.24;94625.16;5051992;28;20226;-75
2022/04/16 07:34:55;;;;;;;4.47;3.58;;;;;;;29.96;29.88;94624.09;5052279;28;20214;-75
2022/04/16 07:37:23;;;;;;;6.57;3.90;;;;;;;29.92;29.65;94623.03;5051977;28;20183;-74
2022/04/16 07:39:50;;;;;;;6.53;3.53;;;;;;;29.88;29.52;94628.06;5051702;28;20230;-76
2022/04/16 07:42:17;;;;;;;4.95;3.72;;;;;;;29.80;30.03;94625.13;5051152;28;20227;-75
2022/04/16 07:44:44;;;;;;;6.63;4.13;;;;;;;29.72;30.55;94619.31;5051605;28;20201;-76
2022/04/16 07:47:12;;;;;;;6.85;4.00;;;;;;;29.65;30.13;94624.03;5054792;28;20187;-74
2022/04/16 07:49:38;;;;;;;5.30;3.55;;;;;;;29.57;30.53;94624.50;5053039;28;20614;-78
2022/04/16 07:52:09;;;;;;;4.45;3.97;;;;;;;29.49;30.79;94620.53;5051440;28;20214;-76
2022/04/16 07:54:38;;;;;;;9.13;3.60;;;;;;;29.40;30.61;94616.78;5051049;28;20756;-75
2022/04/16 07:57:05;;;;;;;5.78;4.25;;;;;;;29.28;30.15;94615.44;5041243;28;20191;-77
2022/04/16 07:59:32;;;;;;;7.65;4.28;;;;;;;29.18;29.97;94610.88;5050991;28;20194;-76
2022/04/16 08:01:59;;;;;;;5.50;3.90;;;;;;;29.09;30.31;94602.66;5050800;28;20233;-74
2022/04/16 08:04:26;;;;;;;5.30;3.72;;;;;;;29.05;30.52;94606.84;5051055;28;20176;-77
2022/04/16 08:06:53;;;;;;;5.30;3.72;;;;;;;29.01;30.69;94600.50;5050965;28;20214;-77
2022/04/16 08:09:24;;;;;;;5.72;3.42;;;;;;;28.94;30.75;94584.13;5050965;28;20245;-78
2022/04/16 08:11:51;;;;;;;6.70;3.75;;;;;;;28.98;30.70;94596.56;5051158;28;20218;-75
2022/04/16 08:14:20;;;;;;;6.47;4.03;;;;;;;29.05;30.03;94595.53;5051252;28;20195;-78
2022/04/16 08:16:48;;;;;;;7.20;3.70;;;;;;;29.12;29.73;94604.00;5051587;28;20190;-80
2022/04/16 08:19:15;;;;;;;7.60;3.95;;;;;;;29.16;29.75;94592.72;5051400;28;20218;-75
2022/04/16 08:21:42;;;;;;;5.80;3.58;;;;;;;29.22;29.45;94589.03;5051460;28;20191;-77
2022/04/16 08:24:22;;;;;;;4.95;3.60;;;;;;;29.31;29.64;94581.44;5050797;28;20179;-77
2022/04/16 08:26:50;;;;;;;4.93;3.33;;;;;;;29.45;29.51;94587.03;5051671;28;20697;-77
2022/04/16 08:29:17;;;;;;;4.88;3.55;;;;;;;29.52;30.16;94576.25;5051387;28;20195;-75
2022/04/16 08:31:44;;;;;;;3.83;3.20;;;;;;;29.67;30.01;94576.34;5050707;28;20230;-75
2022/04/16 08:34:11;;;;;;;7.25;3.67;;;;;;;29.77;29.78;94586.09;5050850;28;20190;-75
2022/04/16 08:36:38;;;;;;;4.72;3.08;;;;;;;29.78;29.53;94564.75;5050556;28;20187;-77
2022/04/16 08:39:06;;;;;;;6.53;3.42;;;;;;;29.92;29.40;94562.38;5050718;28;20828;-75
2022/04/16 08:41:33;;;;;;;4.40;3.22;;;;;;;30.00;29.37;94565.28;5050637;28;20252;-74
2022/04/16 08:44:02;;;;;;;4.05;3.13;;;;;;;30.08;28.95;94560.56;5050387;28;20580;-74
2022/04/16 08:46:33;;;;;;;5.60;3.17;;;;;;;30.13;29.37;94555.28;5050462;28;20663;-77
2022/04/16 08:49:00;;;;;;;3.65;3.35;;;;;;;30.22;29.66;94565.09;5050263;28;20700;-80
2022/04/16 08:51:27;;;;;;;5.07;3.25;;;;;;;30.26;29.56;94548.72;5049628;28;20218;-78
2022/04/16 08:53:54;;;;;;;10.00;3.40;;;;;;;30.38;29.56;94542.13;5049156;28;20191;-75
2022/04/16 08:56:21;;;;;;;7.97;3.28;;;;;;;30.41;29.43;94538.97;5049826;28;20187;-75
2022/04/16 08:58:48;;;;;;;7.45;3.50;;;;;;;30.51;28.84;94538.16;5050233;28;20281;-75
2022/04/16 09:01:17;;;;;;;5.22;3.45;;;;;;;30.60;28.30;94538.41;5050139;28;20665;-75
2022/04/16 09:03:43;;;;;;;4.47;3.20;;;;;;;30.71;27.90;94542.63;5050377;28;20266;-75
2022/04/16 09:06:10;;;;;;;4.05;2.92;;;;;;;30.69;27.44;94527.03;5049927;28;20199;-73
2022/04/16 09:08:37;;;;;;;3.53;3.22;;;;;;;30.80;27.10;94534.97;5050062;28;20227;-71
2022/04/16 09:11:08;;;;;;;7.07;3.33;;;;;;;30.83;27.31;94534.41;5050503;28;20201;-74
2022/04/16 09:13:35;;;;;;;4.80;3.08;;;;;;;30.84;27.03;94531.53;5050179;28;20198;-76
2022/04/16 09:16:06;;;;;;;7.03;3.60;;;;;;;30.82;26.60;94527.56;5049768;28;20845;-78
2022/04/16 09:18:45;;;;;;;5.13;3.35;;;;;;;30.86;26.46;94525.97;5050234;28;20203;-76
2022/04/16 09:21:13;;;;;;;3.90;3.38;;;;;;;30.89;26.57;94531.50;5049904;28;20225;-80
2022/04/16 09:23:47;;;;;;;5.38;3.78;;;;;;;30.86;26.06;94516.19;5051185;28;20207;-78
2022/04/16 09:26:14;;;;;;;5.22;3.25;;;;;;;30.87;26.19;94525.72;5050621;28;20183;-79
2022/04/16 09:28:44;;;;;;;4.43;3.05;;;;;;;30.80;26.19;94519.91;5050291;28;20194;-75
2022/04/16 09:31:12;;;;;;;6.13;3.42;;;;;;;30.64;26.57;94518.34;5049541;28;20678;-77
2022/04/16 09:33:40;;;;;;;10.32;3.50;;;;;;;30.38;27.18;94510.47;5050353;28;20206;-78
2022/04/16 09:36:07;;;;;;;5.78;3.30;;;;;;;30.29;27.67;94517.31;5050142;28;20195;-79
2022/04/16 09:38:35;;;;;;;4.18;2.90;;;;;;;30.13;28.16;94515.72;5050302;28;20186;-82
2022/04/16 09:41:08;;;;;;;4.53;3.42;;;;;;;29.95;27.74;94509.13;5050052;28;20187;-80
2022/04/16 09:43:36;;;;;;;9.35;2.88;;;;;;;29.81;27.85;94506.22;5050025;28;20642;-77
2022/04/16 09:46:11;;;;;;;5.38;3.50;;;;;;;29.61;27.23;94493.78;5049815;28;20638;-77
2022/04/16 09:48:38;;;;;;;7.07;3.25;;;;;;;29.45;27.55;94508.78;5050349;28;20229;-77
2022/04/16 09:51:06;;;;;;;5.82;3.20;;;;;;;29.37;28.86;94509.28;5050039;28;20195;-74
2022/04/16 09:53:37;;;;;;;3.90;3.08;;;;;;;29.30;30.17;94497.41;5051077;28;20222;-81
2022/04/16 09:56:11;;;;;;;3.53;3.15;;;;;;;29.33;30.05;94502.16;5050828;28;20183;-76
2022/04/16 09:58:40;;;;;;;7.20;2.90;;;;;;;29.38;30.04;94494.25;5050263;28;20234;-76
2022/04/16 10:01:10;;;;;;;8.05;3.10;;;;;;;29.40;29.60;94492.94;5050252;28;20191;-77
2022/04/16 10:03:37;;;;;;;4.90;3.20;;;;;;;29.44;28.73;94494.00;5050872;28;20202;-80
2022/04/16 10:06:06;;;;;;;3.88;3.10;;;;;;;29.46;28.60;94494.53;5052237;28;20183;-78
2022/04/16 10:08:34;;;;;;;4.05;3.22;;;;;;;29.50;28.50;94495.59;5054278;28;20446;-77
2022/04/16 10:11:03;;;;;;;7.03;4.20;;;;;;;29.52;27.65;94497.19;5053685;28;20219;-76
2022/04/16 10:13:38;;;;;;;4.40;3.28;;;;;;;29.57;27.69;94490.09;5053739;28;20222;-75
2022/04/16 10:16:13;;;;;;;3.88;3.40;;;;;;;29.61;27.32;94483.25;5054049;28;20229;-78
2022/04/16 10:18:40;;;;;;;4.13;3.40;;;;;;;29.65;27.34;94486.16;5054317;28;20286;-79
2022/04/16 10:21:15;;;;;;;5.85;3.67;;;;;;;29.68;27.09;94483.00;5053686;28;20190;-78
2022/04/16 10:23:42;;;;;;;4.90;3.60;;;;;;;29.70;27.10;94481.69;5054110;28;20198;-80
2022/04/16 10:26:11;;;;;;;3.83;3.40;;;;;;;29.74;27.28;94474.03;5054681;28;20217;-75
2022/04/16 10:28:40;;;;;;;3.70;3.10;;;;;;;29.77;27.14;94478.81;5056610;28;20195;-76
2022/04/16 10:31:18;;;;;;;4.35;3.25;;;;;;;29.81;26.92;94471.94;5061981;28;20195;-90
2022/04/16 10:33:56;;;;;;;3.75;3.13;;;;;;;29.85;26.56;94464.31;5071833;28;20226;-82
2022/04/16 10:36:28;;;;;;;3.38;3.08;;;;;;;29.88;26.98;94461.94;5071063;28;20203;-83
2022/04/16 10:38:54;;;;;;;7.15;3.28;;;;;;;29.89;26.77;94458.25;5066522;28;20183;-76
2022/04/16 10:41:22;;;;;;;4.18;3.50;;;;;;;29.95;26.47;94459.03;5069223;28;20183;-79
2022/04/16 10:43:54;;;;;;;3.80;3.17;;;;;;;29.98;26.57;94466.41;5066372;28;20183;-78
2022/04/16 10:46:21;;;;;;;4.60;3.30;;;;;;;29.89;26.59;94444.28;5065367;28;20218;-77
2022/04/16 10:48:50;;;;;;;4.00;3.40;;;;;;;29.98;26.27;94459.28;5058388;28;20322;-81
2022/04/16 10:51:21;;;;;;;7.38;3.33;;;;;;;29.96;26.57;94450.03;5054202;28;20213;-79
2022/04/16 10:53:49;;;;;;;5.25;3.38;;;;;;;30.02;26.55;94456.91;5054549;28;20230;-87
2022/04/16 10:56:20;;;;;;;3.47;3.17;;;;;;;30.02;26.42;94450.84;5054671;28;20643;-79
2022/04/16 10:58:48;;;;;;;6.85;3.20;;;;;;;30.01;26.23;94452.72;5055077;28;20217;-87
2022/04/16 11:01:25;;;;;;;5.78;3.47;;;;;;;29.99;25.77;94450.31;5057256;28;20195;-85
2022/04/16 11:03:53;;;;;;;5.50;3.75;;;;;;;29.99;26.14;94447.69;5059461;28;20187;-76
2022/04/16 11:06:21;;;;;;;6.25;3.80;;;;;;;30.01;26.35;94450.06;5068441;28;20195;-77
2022/04/16 11:08:49;;;;;;;6.90;3.30;;;;;;;30.02;26.20;94442.94;5057426;28;20218;-80
2022/04/16 11:11:16;;;;;;;4.82;3.30;;;;;;;30.02;26.25;94450.84;5055235;28;20184;-84
2022/04/16 11:13:44;;;;;;;6.47;3.92;;;;;;;30.01;25.80;94447.44;5053201;28;20720;-84
2022/04/16 11:16:11;;;;;;;4.35;3.42;;;;;;;30.02;25.90;94449.00;5053233;28;20195;-83
2022/04/16 11:18:41;;;;;;;8.43;3.85;;;;;;;29.95;26.06;94436.06;5055010;28;20184;-84
2022/04/16 11:21:09;;;;;;;5.80;3.65;;;;;;;29.99;25.64;94441.63;5055871;28;20199;-84
2022/04/16 11:23:44;;;;;;;3.70;3.35;;;;;;;29.98;25.88;94440.03;5055167;28;20198;-84
2022/04/16 11:34:30;;;;;;;5.43;3.38;;;;;;;29.87;26.22;94425.28;5053969;28;20246;-80
2022/04/16 11:36:58;;;;;;;4.88;3.65;;;;;;;29.89;25.69;94429.22;5054314;28;20235;-83
2022/04/16 11:39:27;;;;;;;5.22;3.38;;;;;;;29.87;25.86;94430.53;5055147;28;20333;-84
2022/04/16 11:41:56;;;;;;;5.10;3.65;;;;;;;29.83;26.11;94422.38;5055135;28;20194;-80
2022/04/16 11:44:38;;;;;;;6.57;4.18;;;;;;;29.81;26.08;94413.94;5055061;28;20260;-87
2022/04/16 11:47:11;;;;;;;5.18;3.67;;;;;;;29.80;26.06;94419.50;5059908;28;20194;-82
2022/04/16 11:49:38;;;;;;;5.93;3.67;;;;;;;29.74;25.74;94413.41;5069815;28;20186;-85
2022/04/16 11:52:06;;;;;;;6.13;3.67;;;;;;;29.73;25.93;94409.19;5068523;28;20195;-77
2022/04/16 11:54:33;;;;;;;5.43;3.63;;;;;;;29.73;25.97;94406.56;5065507;28;20187;-83
2022/04/16 11:57:01;;;;;;;6.82;3.45;;;;;;;29.71;25.78;94404.19;5055341;28;20196;-87
2022/04/16 11:59:30;;;;;;;4.75;3.25;;;;;;;29.57;25.84;94373.34;5055151;28;20183;-88
2022/04/16 12:01:58;;;;;;;4.57;3.67;;;;;;;29.69;25.65;94385.19;5055280;28;20195;-84